Corona, Arizona
Current Conditions -  °F | °C
As of 6:53 PM on Tuesday 21 Oct 2014 (Local Time) from KTUS Reporting Station
Clear Clear  
Wind Chill: 78°   Ceiling: Unl
Heat Index: 78°   Visibility: 10mi
Dew Point: 46°   Wind: 5mph
Humidity: 32%   Direction: 350°N
Pressure: 29.89"   Gusts: NA
Location:  31.9353°N, 110.697°W
Report Text: KTUS 220153Z 35004KT 10SM CLR 26/08 A2989 RMK AO2 SLP084 T02560078
Loading
Personal Weather Stations






























Interactive Weather Map
Tropical Storm Tracking
New forecast layout! Learn more

10-Day Weather Forecast

Advertisements
Track Severe Weather on mobile